createdAt,value
2023-05-05T00:02:59.770Z,99298.27
2023-05-05T00:06:17.102Z,99298.07
2023-05-05T00:09:33.507Z,99298.62
2023-05-05T00:12:50.209Z,99298.69
2023-05-05T00:16:06.860Z,99306.30
2023-05-05T00:19:23.429Z,99306.25
2023-05-05T00:22:40.162Z,99299.39
2023-05-05T00:25:56.888Z,99293.33
2023-05-05T00:29:13.786Z,99289.34
2023-05-05T00:32:30.618Z,99292.52
2023-05-05T00:35:47.718Z,99291.02
2023-05-05T00:39:04.181Z,99284.59
2023-05-05T00:45:52.924Z,99276.70
2023-05-05T00:49:10.937Z,99274.59
2023-05-05T00:52:27.930Z,99271.27
2023-05-05T00:55:47.516Z,99262.28
2023-05-05T01:02:20.001Z,99275.94
2023-05-05T01:05:43.047Z,99283.33
2023-05-05T01:09:09.881Z,99274.30
2023-05-05T01:12:31.013Z,99271.95
2023-05-05T01:15:52.532Z,99270.66
2023-05-05T01:19:21.399Z,99271.80
2023-05-05T01:22:46.509Z,99271.33
2023-05-05T01:26:48.022Z,99263.19
2023-05-05T01:30:19.775Z,99259.42
2023-05-05T01:33:44.862Z,99257.38
2023-05-05T01:37:10.105Z,99257.13
2023-05-05T01:40:32.085Z,99247.75
2023-05-05T01:47:07.671Z,99256.67
2023-05-05T01:50:26.416Z,99243.81
2023-05-05T01:53:44.486Z,99249.13
2023-05-05T01:57:04.243Z,99247.92
2023-05-05T02:00:23.611Z,99241.53
2023-05-05T02:03:39.214Z,99239.16
2023-05-05T02:06:58.386Z,99239.47
2023-05-05T02:10:18.769Z,99246.72
2023-05-05T02:13:38.379Z,99246.60
2023-05-05T02:16:55.588Z,99249.94
2023-05-05T02:20:15.942Z,99242.58
2023-05-05T02:23:33.243Z,99246.21
2023-05-05T02:26:53.819Z,99248.42
2023-05-05T02:30:15.000Z,99241.79
2023-05-05T02:33:35.357Z,99241.21
2023-05-05T02:36:55.235Z,99247.88
2023-05-05T02:40:16.295Z,99252.09
2023-05-05T02:46:50.517Z,99260.11
2023-05-05T02:50:07.665Z,99259.17
2023-05-05T02:53:27.732Z,99266.84
2023-05-05T03:02:09.713Z,99251.45
2023-05-05T03:05:31.532Z,99264.20
2023-05-05T03:08:53.692Z,99273.61
2023-05-05T03:15:27.281Z,99258.83
2023-05-05T03:18:46.011Z,99256.16
2023-05-05T03:22:02.714Z,99256.98
2023-05-05T03:25:20.471Z,99270.02
2023-05-05T03:28:37.606Z,99269.16
2023-05-05T03:31:55.900Z,99276.09
2023-05-05T03:35:15.430Z,99265.55
2023-05-05T03:38:33.390Z,99272.91
2023-05-05T03:41:52.012Z,99270.56
2023-05-05T03:45:09.733Z,99268.87
2023-05-05T03:48:27.567Z,99271.90
2023-05-05T03:51:44.172Z,99271.14
2023-05-05T03:55:01.772Z,99262.31
2023-05-05T03:58:18.561Z,99265.60
2023-05-05T04:01:36.224Z,99274.01
2023-05-05T04:04:54.264Z,99273.95
2023-05-05T04:08:11.792Z,99268.75
2023-05-05T04:11:29.786Z,99260.89
2023-05-05T04:14:47.078Z,99270.24
2023-05-05T04:18:04.670Z,99267.27
2023-05-05T04:21:21.347Z,99265.19
2023-05-05T04:24:38.186Z,99274.02
2023-05-05T04:27:54.822Z,99274.08
2023-05-05T04:31:12.633Z,99278.97
2023-05-05T04:34:30.342Z,99273.70
2023-05-05T04:37:47.285Z,99275.91
2023-05-05T04:41:09.521Z,99279.69
2023-05-05T04:44:26.911Z,99286.66
2023-05-05T04:47:49.145Z,99281.97
2023-05-05T04:51:06.417Z,99289.06
2023-05-05T04:54:23.673Z,99295.33
2023-05-05T04:57:41.204Z,99302.32
2023-05-05T05:00:57.862Z,99304.42
2023-05-05T05:04:14.825Z,99304.98
2023-05-05T05:07:33.551Z,99308.94
2023-05-05T05:10:51.373Z,99305.34
2023-05-05T05:14:07.768Z,99304.98
2023-05-05T05:17:25.845Z,99303.91
2023-05-05T05:20:42.416Z,99301.34
2023-05-05T05:24:00.178Z,99300.03
2023-05-05T05:27:18.350Z,99313.83
2023-05-05T05:30:35.499Z,99309.06
2023-05-05T05:33:53.865Z,99314.78
2023-05-05T05:37:11.993Z,99319.61
2023-05-05T05:40:28.828Z,99318.49
2023-05-05T05:43:49.420Z,99322.17
2023-05-05T05:47:06.663Z,99321.35
2023-05-05T05:50:27.093Z,99326.17
2023-05-05T05:53:44.150Z,99322.70
2023-05-05T05:57:03.717Z,99335.16
2023-05-05T06:01:21.625Z,99330.49
2023-05-05T06:04:39.211Z,99326.82
2023-05-05T06:07:55.656Z,99333.47
2023-05-05T06:11:13.009Z,99342.23
2023-05-05T06:17:46.054Z,99340.16
2023-05-05T06:21:03.149Z,99338.98
2023-05-05T06:24:20.269Z,99348.41
2023-05-05T06:30:53.906Z,99345.45
2023-05-05T06:34:10.354Z,99348.50
2023-05-05T06:37:29.158Z,99349.88
2023-05-05T06:40:51.052Z,99354.58
2023-05-05T06:44:07.690Z,99353.52
2023-05-05T06:47:24.122Z,99356.28
2023-05-05T06:53:53.388Z,99353.14
2023-05-05T06:57:10.066Z,99360.78
2023-05-05T07:03:41.967Z,99350.44
2023-05-05T07:07:00.043Z,99351.47
2023-05-05T07:10:19.432Z,99357.69
2023-05-05T07:13:35.710Z,99364.94
2023-05-05T07:16:54.715Z,99366.52
2023-05-05T07:20:15.525Z,99353.43
2023-05-05T07:23:32.047Z,99357.51
2023-05-05T07:26:49.146Z,99364.19
2023-05-05T07:30:10.157Z,99353.07
2023-05-05T07:33:26.493Z,99348.30
2023-05-05T07:36:40.805Z,99357.28
2023-05-05T07:39:57.113Z,99357.72
2023-05-05T07:46:29.512Z,99352.96
2023-05-05T07:49:48.914Z,99374.03
2023-05-05T07:53:13.690Z,99357.01
2023-05-05T07:56:21.907Z,99357.27
2023-05-05T07:59:41.943Z,99357.44
2023-05-05T08:03:02.619Z,99366.27
2023-05-05T08:06:26.148Z,99360.01
2023-05-05T08:09:45.584Z,99362.55
2023-05-05T08:13:01.988Z,99365.06
2023-05-05T08:16:19.912Z,99364.08
2023-05-05T08:19:36.254Z,99369.00
2023-05-05T08:22:52.839Z,99364.84
2023-05-05T08:26:10.162Z,99366.05
2023-05-05T08:29:26.927Z,99373.71
2023-05-05T08:32:43.823Z,99363.41
2023-05-05T08:36:00.472Z,99367.03
2023-05-05T08:39:17.537Z,99373.30
2023-05-05T08:42:38.558Z,99373.63
2023-05-05T08:45:57.436Z,99368.95
2023-05-05T08:49:19.219Z,99379.02
2023-05-05T08:52:40.987Z,99368.70
2023-05-05T08:56:01.660Z,99370.06
2023-05-05T08:59:19.698Z,99366.73
2023-05-05T09:02:37.927Z,99364.00
2023-05-05T09:05:56.617Z,99368.09
2023-05-05T09:09:14.521Z,99360.19
2023-05-05T09:12:32.204Z,99358.38
2023-05-05T09:15:48.724Z,99358.63
2023-05-05T09:19:12.859Z,99366.80
2023-05-05T09:22:41.610Z,99361.70
2023-05-05T09:26:13.507Z,99363.15
2023-05-05T09:29:30.808Z,99359.69
2023-05-05T09:32:59.085Z,99380.72
2023-05-05T09:36:16.697Z,99365.44
2023-05-05T09:39:36.008Z,99369.43
2023-05-05T09:42:52.756Z,99368.13
2023-05-05T09:46:17.635Z,99362.98
2023-05-05T09:49:37.694Z,99359.41
2023-05-05T09:53:04.085Z,99355.11
2023-05-05T09:56:21.685Z,99347.61
2023-05-05T09:59:39.941Z,99349.22
2023-05-05T10:02:56.417Z,99335.20
2023-05-05T10:06:13.413Z,99348.66
2023-05-05T10:09:30.350Z,99348.05
2023-05-05T10:12:47.859Z,99337.66
2023-05-05T10:16:05.852Z,99342.22
2023-05-05T10:19:24.990Z,99346.83
2023-05-05T10:22:43.709Z,99334.75
2023-05-05T10:26:07.012Z,99334.59
2023-05-05T10:29:29.343Z,99333.98
2023-05-05T10:33:07.883Z,99328.25
2023-05-05T10:36:13.061Z,99324.00
2023-05-05T10:39:30.522Z,99336.53
2023-05-05T10:46:04.513Z,99318.56
2023-05-05T10:49:27.712Z,99314.48
2023-05-05T10:52:49.216Z,99313.87
2023-05-05T10:56:20.245Z,99316.06
2023-05-05T11:02:52.358Z,99296.41
2023-05-05T11:06:24.764Z,99302.92
2023-05-05T11:09:43.735Z,99295.21
2023-05-05T11:16:52.793Z,99295.61
2023-05-05T11:20:11.293Z,99298.98
2023-05-05T11:23:35.609Z,99285.11
2023-05-05T11:27:11.786Z,99282.79
2023-05-05T11:30:54.637Z,99275.34
2023-05-05T11:34:33.415Z,99271.55
2023-05-05T11:38:11.928Z,99276.17
2023-05-05T11:41:43.066Z,99287.73
2023-05-05T11:45:02.853Z,99285.22
2023-05-05T11:48:36.189Z,99285.03
2023-05-05T11:52:02.809Z,99279.01
2023-05-05T11:55:21.774Z,99280.19
2023-05-05T11:58:36.081Z,99270.94
2023-05-05T12:01:52.409Z,99274.30
2023-05-05T12:05:16.474Z,99275.58
2023-05-05T12:08:54.574Z,99267.53
2023-05-05T12:12:16.839Z,99265.56
2023-05-05T12:18:55.470Z,99260.66
2023-05-05T12:22:14.473Z,99274.36
2023-05-05T12:25:30.993Z,99260.78
2023-05-05T12:28:57.785Z,99264.28
2023-05-05T12:32:16.450Z,99249.78
2023-05-05T12:35:34.942Z,99251.35
2023-05-05T12:38:51.166Z,99249.97
2023-05-05T12:42:16.142Z,99238.66
2023-05-05T12:45:32.716Z,99231.95
2023-05-05T12:48:50.472Z,99239.20
2023-05-05T12:52:08.776Z,99241.42
2023-05-05T12:55:25.361Z,99235.67
2023-05-05T13:02:03.246Z,99231.34
2023-05-05T13:05:20.932Z,99227.84
2023-05-05T13:08:52.922Z,99217.11
2023-05-05T13:12:12.062Z,99224.20
2023-05-05T13:15:28.891Z,99221.17
2023-05-05T13:18:55.365Z,99211.70
2023-05-05T13:22:12.084Z,99210.28
2023-05-05T13:25:28.487Z,99204.69
2023-05-05T13:28:45.570Z,99200.55
2023-05-05T13:32:02.019Z,99198.13
2023-05-05T13:35:19.042Z,99206.80
2023-05-05T13:38:35.813Z,99198.36
2023-05-05T13:41:52.427Z,99192.57
2023-05-05T13:45:10.407Z,99196.75
2023-05-05T13:48:29.838Z,99190.31
2023-05-05T13:51:47.716Z,99191.73
2023-05-05T13:55:04.503Z,99184.75
2023-05-05T13:58:21.165Z,99176.09
2023-05-05T14:01:38.040Z,99174.44
2023-05-05T14:04:57.013Z,99169.92
2023-05-05T14:08:14.124Z,99173.18
2023-05-05T14:11:32.512Z,99167.66
2023-05-05T14:14:48.842Z,99171.38
2023-05-05T14:18:05.438Z,99166.17
2023-05-05T14:21:21.848Z,99170.34
2023-05-05T14:24:38.301Z,99169.53
2023-05-05T14:27:54.815Z,99159.84
2023-05-05T14:31:13.154Z,99164.75
2023-05-05T14:34:29.641Z,99162.52
2023-05-05T14:37:46.611Z,99153.59
2023-05-05T14:41:03.217Z,99155.44
2023-05-05T14:44:19.657Z,99157.31
2023-05-05T14:47:36.653Z,99151.72
2023-05-05T14:50:53.089Z,99155.44
2023-05-05T14:54:24.130Z,99154.25
2023-05-05T14:57:26.346Z,99146.85
2023-05-05T15:00:42.436Z,99146.85
2023-05-05T15:03:58.924Z,99140.91
2023-05-05T15:07:15.299Z,99145.00
2023-05-05T15:10:32.435Z,99142.33
2023-05-05T15:17:07.471Z,99144.63
2023-05-05T15:20:24.011Z,99151.02
2023-05-05T15:23:41.079Z,99151.02
2023-05-05T15:26:57.571Z,99144.85
2023-05-05T15:33:31.224Z,99146.53
2023-05-05T15:36:47.608Z,99152.55
2023-05-05T15:40:06.910Z,99156.30
2023-05-05T15:43:23.409Z,99152.16
2023-05-05T15:50:44.571Z,99149.93
2023-05-05T15:54:01.235Z,99144.57
2023-05-05T15:57:19.185Z,99148.73
2023-05-05T16:00:37.343Z,99149.16
2023-05-05T16:03:53.835Z,99149.38
2023-05-05T16:07:10.450Z,99147.96
2023-05-05T16:10:27.409Z,99149.22
2023-05-05T16:19:07.469Z,99140.17
2023-05-05T16:22:23.948Z,99141.43
2023-05-05T16:25:40.440Z,99137.10
2023-05-05T16:28:57.048Z,99141.88
2023-05-05T16:32:13.899Z,99127.05
2023-05-05T16:35:30.643Z,99128.67
2023-05-05T16:38:47.294Z,99126.44
2023-05-05T16:42:52.767Z,99125.41
2023-05-05T16:46:07.028Z,99128.73
2023-05-05T16:49:25.087Z,99132.67
2023-05-05T16:52:42.064Z,99125.27
2023-05-05T16:56:02.122Z,99124.29
2023-05-05T16:59:20.149Z,99130.29
2023-05-05T17:02:36.677Z,99131.32
2023-05-05T17:05:54.691Z,99132.18
2023-05-05T17:09:11.672Z,99128.91
2023-05-05T17:12:28.479Z,99137.98
2023-05-05T17:15:45.560Z,99127.88
2023-05-05T17:19:03.404Z,99132.61
2023-05-05T17:22:19.900Z,99131.41
2023-05-05T17:25:36.369Z,99131.23
2023-05-05T17:28:52.819Z,99130.84
2023-05-05T17:35:17.640Z,99129.23
2023-05-05T17:38:38.628Z,99131.52
2023-05-05T17:41:55.330Z,99131.92
2023-05-05T17:45:13.366Z,99136.88
2023-05-05T17:48:31.092Z,99132.18
2023-05-05T17:51:47.912Z,99128.48
2023-05-05T17:55:05.772Z,99130.98
2023-05-05T17:58:21.564Z,99133.25
2023-05-05T18:01:38.235Z,99137.61
2023-05-05T18:04:54.678Z,99131.67
2023-05-05T18:08:11.328Z,99128.39
2023-05-05T18:11:42.167Z,99134.17
2023-05-05T18:14:55.868Z,99135.81
2023-05-05T18:18:13.120Z,99131.91
2023-05-05T18:21:35.604Z,99126.97
2023-05-05T18:25:03.178Z,99131.59
2023-05-05T18:28:22.540Z,99135.83
2023-05-05T18:31:39.298Z,99137.83
2023-05-05T18:34:55.873Z,99147.80
2023-05-05T18:38:12.184Z,99145.74
2023-05-05T18:41:31.664Z,99150.59
2023-05-05T18:48:04.577Z,99158.27
2023-05-05T18:51:20.938Z,99154.12
2023-05-05T18:54:38.012Z,99152.23
2023-05-05T18:57:54.617Z,99153.64
2023-05-05T19:04:31.738Z,99154.17
2023-05-05T19:07:47.571Z,99146.30
2023-05-05T19:11:04.525Z,99150.90
2023-05-05T19:17:38.009Z,99144.97
2023-05-05T19:21:09.117Z,99147.74
2023-05-05T19:24:36.599Z,99136.73
2023-05-05T19:27:53.534Z,99138.68
2023-05-05T19:31:10.137Z,99138.88
2023-05-05T19:34:26.898Z,99135.52
2023-05-05T19:37:44.325Z,99133.53
2023-05-05T19:41:01.506Z,99126.58
2023-05-05T19:50:44.769Z,99144.56
2023-05-05T19:54:01.382Z,99139.19
2023-05-05T19:57:18.168Z,99135.00
2023-05-05T20:00:34.967Z,99139.48
2023-05-05T20:03:51.952Z,99142.55
2023-05-05T20:07:09.147Z,99138.67
2023-05-05T20:10:27.605Z,99136.81
2023-05-05T20:13:44.056Z,99137.86
2023-05-05T20:17:00.576Z,99136.72
2023-05-05T20:20:21.296Z,99136.97
2023-05-05T20:23:39.183Z,99134.74
2023-05-05T20:26:56.446Z,99125.70
2023-05-05T20:30:16.190Z,99134.91
2023-05-05T20:33:33.222Z,99127.75
2023-05-05T20:36:49.684Z,99123.44
2023-05-05T20:40:07.090Z,99119.12
2023-05-05T20:43:24.122Z,99116.66
2023-05-05T20:49:57.237Z,99118.20
2023-05-05T20:53:15.973Z,99115.30
2023-05-05T20:56:32.735Z,99114.21
2023-05-05T21:03:05.951Z,99110.98
2023-05-05T21:06:24.014Z,99112.76
2023-05-05T21:09:40.801Z,99117.84
2023-05-05T21:12:57.684Z,99123.92
2023-05-05T21:19:31.172Z,99124.68
2023-05-05T21:22:48.892Z,99122.94
2023-05-05T21:26:05.586Z,99125.34
2023-05-05T21:34:14.739Z,99123.48
2023-05-05T21:37:31.913Z,99126.33
2023-05-05T21:40:48.538Z,99123.15
2023-05-05T21:44:05.738Z,99114.27
2023-05-05T21:50:40.109Z,99116.46
2023-05-05T21:53:58.228Z,99111.34
2023-05-05T21:57:14.852Z,99106.95
2023-05-05T22:03:48.331Z,99112.36
2023-05-05T22:07:06.589Z,99109.70
2023-05-05T22:10:24.140Z,99103.66
2023-05-05T22:13:41.936Z,99100.08
2023-05-05T22:17:04.044Z,99110.91
2023-05-05T22:20:22.569Z,99111.56
2023-05-05T22:23:41.430Z,99108.71
2023-05-05T22:26:58.380Z,99103.44
2023-05-05T22:30:17.931Z,99094.54
2023-05-05T22:33:34.827Z,99099.69
2023-05-05T22:36:51.323Z,99101.50
2023-05-05T22:40:09.668Z,99103.69
2023-05-05T22:43:27.577Z,99099.28
2023-05-05T22:46:45.239Z,99097.72
2023-05-05T22:50:05.057Z,99097.34
2023-05-05T22:53:21.473Z,99091.95
2023-05-05T22:56:37.987Z,99092.95
2023-05-05T23:03:11.213Z,99097.13
2023-05-05T23:06:29.333Z,99090.53
2023-05-05T23:09:46.185Z,99101.34
2023-05-05T23:13:02.667Z,99095.56
2023-05-05T23:19:35.965Z,99084.47
2023-05-05T23:22:52.346Z,99083.53
2023-05-05T23:26:09.434Z,99086.55
2023-05-05T23:29:26.073Z,99076.28
2023-05-05T23:32:43.795Z,99073.00
2023-05-05T23:36:15.338Z,99066.74
2023-05-05T23:39:32.162Z,99063.52
2023-05-05T23:42:49.134Z,99058.55
2023-05-05T23:46:05.710Z,99052.63
2023-05-05T23:49:22.288Z,99045.33
2023-05-05T23:52:39.158Z,99053.92
2023-05-05T23:55:56.262Z,99053.47
2023-05-05T23:59:12.574Z,99051.81
